Arcola, Missouri
Current Conditions -  °F | °C
As of 9:52 AM on Wednesday 26 Nov 2014 (Local Time) from KSGF Reporting Station
Few Clouds Few Clouds  
Wind Chill: 33°   Ceiling: Unl
Heat Index: 38°   Visibility: 10mi
Dew Point: 34°   Wind: 7mph
Humidity: 86%   Direction: 250°WSW
Pressure: 29.99"   Gusts: NA
Location:  37.55°N, 93.88°W
Report Text: KSGF 261552Z 25006KT 10SM FEW009 03/01 A2999 RMK AO2 SNE05 SLP166 P0000 T00330011
Loading
Personal Weather Stations






























Interactive Weather Map New forecast layout! Learn more

10-Day Weather Forecast

Advertisements
Track Severe Weather on mobile